CDT,Max TemperatureF,Mean TemperatureF,Min TemperatureF,Max Dew PointF,MeanDew PointF,Min DewpointF,Max Humidity, Mean Humidity, Min Humidity, Max Sea Level PressureIn, Mean Sea Level PressureIn, Min Sea Level PressureIn, Max VisibilityMiles, Mean VisibilityMiles, Min VisibilityMiles, Max Wind SpeedMPH, Mean Wind SpeedMPH, Max Gust SpeedMPH,PrecipitationIn, CloudCover, Events, WindDirDegrees
2012-9-1,86,72,59,59,51,46,72,50,33,30.12,30.03,29.91,10,10,10,23,10,31,0.00,0,,133
2012-9-2,87,74,60,63,55,50,72,54,33,29.90,29.82,29.75,10,10,10,21,13,30,0.00,0,,176
2012-9-3,86,68,50,55,49,41,94,57,22,29.93,29.88,29.81,10,10,1,20,4,26,0.00,1,,95
2012-9-4,86,70,53,54,49,37,88,55,18,29.84,29.81,29.76,10,10,10,9,5,,0.00,0,,310
2012-9-5,73,63,53,46,42,37,72,46,27,29.92,29.89,29.82,10,10,10,18,10,23,0.00,3,,315
2012-9-6,77,60,44,52,45,41,94,63,28,29.98,29.93,29.89,10,10,10,13,4,18,0.00,3,,31
2012-9-7,68,57,46,52,43,36,94,64,30,30.11,30.07,29.99,10,10,10,21,8,28,0.00,3,,335
2012-9-8,69,55,41,45,39,34,81,54,27,30.15,30.02,29.93,10,10,10,28,11,38,0.00,2,,321
2012-9-9,71,54,37,45,38,34,93,56,25,30.24,30.13,29.99,10,10,10,12,5,,0.00,0,,206
2012-9-10,89,70,51,46,42,37,71,42,16,29.98,29.75,29.62,10,10,7,28,13,34,0.00,0,,165
2012-9-11,84,73,60,50,40,27,56,36,17,29.95,29.70,29.59,10,10,5,17,10,25,0.00,0,,146
2012-9-12,71,60,48,36,25,14,51,29,12,30.25,30.13,29.95,10,10,10,25,8,34,0.00,0,,293
2012-9-13,73,55,37,30,25,18,70,35,13,30.33,30.28,30.23,10,10,10,13,4,22,0.00,1,,322
2012-9-14,73,58,42,37,31,25,71,40,16,30.34,30.28,30.19,10,10,10,12,6,9,0.00,0,,104
2012-9-15,87,64,42,39,35,32,71,39,14,30.19,29.99,29.81,10,10,10,20,9,25,0.00,0,,163
2012-9-16,69,58,48,45,39,34,87,56,27,30.09,29.98,29.84,10,10,7,20,11,30,0.21,2,,343
2012-9-17,55,45,35,43,38,32,93,75,44,30.12,30.08,30.04,10,10,7,22,6,31,0.02,3,,325
2012-9-18,59,46,32,41,34,30,100,63,36,30.08,29.93,29.73,10,10,10,15,6,20,0.00,2,,176
2012-9-19,64,54,44,43,36,30,76,50,30,29.90,29.75,29.61,10,10,10,31,13,41,0.00,2,,290
2012-9-20,64,50,35,39,31,27,87,50,26,29.97,29.92,29.86,10,10,10,18,8,25,0.00,1,,305
2012-9-21,62,50,37,41,32,16,87,53,20,30.07,29.90,29.84,10,10,10,30,7,40,0.00,4,,341
2012-9-22,53,42,32,30,27,21,81,58,30,30.32,30.25,30.08,10,10,10,21,12,25,0.00,2,,338
2012-9-23,59,44,28,30,24,19,93,54,23,30.34,30.26,30.11,10,10,5,8,3,,0.00,0,,271
2012-9-24,80,56,32,39,29,23,80,43,16,30.11,29.88,29.73,10,10,5,21,10,26,0.00,0,,260
2012-9-25,60,46,32,36,31,23,93,57,27,30.04,29.94,29.87,10,10,10,14,6,17,0.00,0,,354
2012-9-26,62,44,26,34,29,19,87,56,26,30.19,30.14,30.04,10,10,10,7,2,,0.00,0,,39
2012-9-27,71,52,33,32,28,21,81,46,16,30.24,30.18,30.12,10,10,7,13,6,16,0.00,0,,150
2012-9-28,82,62,41,34,31,28,65,38,16,30.18,30.12,30.06,10,10,7,13,6,18,0.00,0,,190
2012-9-29,82,62,41,37,30,23,70,37,11,30.13,30.06,29.98,10,10,7,10,4,12,0.00,0,,145
2012-9-30,86,66,46,43,35,30,62,37,14,29.99,29.91,29.83,10,10,10,16,7,22,0.00,1,,180